Terminal Aerodrome Forecast
Issued by NWS

Home | Current Version | Previous Version | Text Only | Print | Product List | Glossary On
Versions: 1 2 3 4 5 6 7 8 9 10 11 12 13 14 15 16
838
FTUS45 KTFX 210541
TAFLWT
TAF
KLWT 210541Z 2106/2206 21008KT P6SM SCT100
     FM211200 22010KT P6SM VCSH FEW025 BKN050
     FM211900 26015G25KT P6SM BKN070
     FM220200 24010KT P6SM FEW005 SCT070=

USA.gov is the U.S. government's official web portal to all federal, state and local government web resources and services.